Midval, Wyoming
Current Conditions -  °F | °C
As of 1:53 PM on Friday 24 Oct 2014 (Local Time) from KLND Reporting Station
Clear Clear  
Wind Chill: 71°   Ceiling: Unl
Heat Index: 71°   Visibility: 10mi
Dew Point: 27°   Wind: 5mph
Humidity: 19%   Direction: NA
Pressure: 30.07"   Gusts: NA
Location:  43.1005°N, 108.934°W
Report Text: KLND 241953Z AUTO VRB04KT 10SM CLR 22/M03 A3007 RMK AO2 SLP127 T02171028 TSNO
Loading
Personal Weather Stations






























Interactive Weather Map
Tropical Storm Tracking
New forecast layout! Learn more

10-Day Weather Forecast

Advertisements
Track Severe Weather on mobile